sensor_id;sensor_type;location;lat;lon;timestamp;temperature;humidity
8459;DHT22;4266;48.816;9.154;2022-11-25T00:00:14;2.90;99.90
8459;DHT22;4266;48.816;9.154;2022-11-25T00:02:42;2.90;99.90
8459;DHT22;4266;48.816;9.154;2022-11-25T00:05:08;2.90;99.90
8459;DHT22;4266;48.816;9.154;2022-11-25T00:07:35;2.90;99.90
8459;DHT22;4266;48.816;9.154;2022-11-25T00:10:01;3.10;99.90
8459;DHT22;4266;48.816;9.154;2022-11-25T00:12:26;3.10;99.90
8459;DHT22;4266;48.816;9.154;2022-11-25T00:14:52;3.10;99.90
8459;DHT22;4266;48.816;9.154;2022-11-25T00:17:18;3.10;99.90
8459;DHT22;4266;48.816;9.154;2022-11-25T00:19:43;3.10;99.90
8459;DHT22;4266;48.816;9.154;2022-11-25T00:22:09;3.20;99.90
8459;DHT22;4266;48.816;9.154;2022-11-25T00:24:35;3.00;99.90
8459;DHT22;4266;48.816;9.154;2022-11-25T00:27:01;2.80;99.90
8459;DHT22;4266;48.816;9.154;2022-11-25T00:29:26;2.70;99.90
8459;DHT22;4266;48.816;9.154;2022-11-25T00:31:52;2.70;99.90
8459;DHT22;4266;48.816;9.154;2022-11-25T00:34:18;2.60;99.90
8459;DHT22;4266;48.816;9.154;2022-11-25T00:36:43;2.60;99.90
8459;DHT22;4266;48.816;9.154;2022-11-25T00:39:10;2.60;99.90
8459;DHT22;4266;48.816;9.154;2022-11-25T00:41:35;2.70;99.90
8459;DHT22;4266;48.816;9.154;2022-11-25T00:44:08;2.70;99.90
8459;DHT22;4266;48.816;9.154;2022-11-25T00:46:40;2.80;99.90
8459;DHT22;4266;48.816;9.154;2022-11-25T00:49:07;2.90;99.90
8459;DHT22;4266;48.816;9.154;2022-11-25T00:51:33;2.80;99.90
8459;DHT22;4266;48.816;9.154;2022-11-25T00:53:58;2.90;99.90
8459;DHT22;4266;48.816;9.154;2022-11-25T00:56:24;3.00;99.90
8459;DHT22;4266;48.816;9.154;2022-11-25T00:58:51;3.00;99.90
8459;DHT22;4266;48.816;9.154;2022-11-25T01:01:15;3.00;99.90
8459;DHT22;4266;48.816;9.154;2022-11-25T01:03:42;3.20;99.90
8459;DHT22;4266;48.816;9.154;2022-11-25T01:06:08;3.20;99.90
8459;DHT22;4266;48.816;9.154;2022-11-25T01:08:36;3.40;99.90
8459;DHT22;4266;48.816;9.154;2022-11-25T01:11:02;3.50;99.90
8459;DHT22;4266;48.816;9.154;2022-11-25T01:13:28;3.80;99.90
8459;DHT22;4266;48.816;9.154;2022-11-25T01:15:54;3.80;99.90
8459;DHT22;4266;48.816;9.154;2022-11-25T01:18:20;3.80;99.90
8459;DHT22;4266;48.816;9.154;2022-11-25T01:20:45;3.70;99.90
8459;DHT22;4266;48.816;9.154;2022-11-25T01:23:11;3.70;99.90
8459;DHT22;4266;48.816;9.154;2022-11-25T01:25:37;3.50;99.90
8459;DHT22;4266;48.816;9.154;2022-11-25T01:28:03;3.40;99.90
8459;DHT22;4266;48.816;9.154;2022-11-25T01:30:29;3.40;99.90
8459;DHT22;4266;48.816;9.154;2022-11-25T01:32:54;3.40;99.90
8459;DHT22;4266;48.816;9.154;2022-11-25T01:35:20;3.50;99.90
8459;DHT22;4266;48.816;9.154;2022-11-25T01:37:46;3.60;99.90
8459;DHT22;4266;48.816;9.154;2022-11-25T01:40:13;3.60;99.90
8459;DHT22;4266;48.816;9.154;2022-11-25T01:42:41;3.60;99.90
8459;DHT22;4266;48.816;9.154;2022-11-25T01:45:28;3.50;99.90
8459;DHT22;4266;48.816;9.154;2022-11-25T01:47:53;3.50;99.90
8459;DHT22;4266;48.816;9.154;2022-11-25T01:50:18;3.60;99.90
8459;DHT22;4266;48.816;9.154;2022-11-25T01:52:46;3.60;99.90
8459;DHT22;4266;48.816;9.154;2022-11-25T01:55:27;3.60;99.90
8459;DHT22;4266;48.816;9.154;2022-11-25T01:57:53;3.60;99.90
8459;DHT22;4266;48.816;9.154;2022-11-25T02:00:19;3.60;99.90
8459;DHT22;4266;48.816;9.154;2022-11-25T02:02:45;3.60;99.90
8459;DHT22;4266;48.816;9.154;2022-11-25T02:05:11;3.70;99.90
8459;DHT22;4266;48.816;9.154;2022-11-25T02:07:38;3.70;99.90
8459;DHT22;4266;48.816;9.154;2022-11-25T02:10:06;4.00;99.90
8459;DHT22;4266;48.816;9.154;2022-11-25T02:12:31;4.10;99.90
8459;DHT22;4266;48.816;9.154;2022-11-25T02:14:57;4.00;99.90
8459;DHT22;4266;48.816;9.154;2022-11-25T02:17:23;3.90;99.90
8459;DHT22;4266;48.816;9.154;2022-11-25T02:20:07;3.90;99.90
8459;DHT22;4266;48.816;9.154;2022-11-25T02:22:38;3.90;99.90
8459;DHT22;4266;48.816;9.154;2022-11-25T02:27:26;3.70;99.90
8459;DHT22;4266;48.816;9.154;2022-11-25T02:29:52;3.70;99.90
8459;DHT22;4266;48.816;9.154;2022-11-25T02:32:20;3.70;99.90
8459;DHT22;4266;48.816;9.154;2022-11-25T02:34:46;3.70;99.90
8459;DHT22;4266;48.816;9.154;2022-11-25T02:37:12;3.60;99.90
8459;DHT22;4266;48.816;9.154;2022-11-25T02:39:38;3.70;99.90
8459;DHT22;4266;48.816;9.154;2022-11-25T02:42:04;3.70;99.90
8459;DHT22;4266;48.816;9.154;2022-11-25T02:44:30;3.70;99.90
8459;DHT22;4266;48.816;9.154;2022-11-25T02:46:56;3.70;99.90
8459;DHT22;4266;48.816;9.154;2022-11-25T02:49:22;3.80;99.90
8459;DHT22;4266;48.816;9.154;2022-11-25T02:51:48;3.80;99.90
8459;DHT22;4266;48.816;9.154;2022-11-25T02:54:13;3.80;99.90
8459;DHT22;4266;48.816;9.154;2022-11-25T02:56:40;3.80;99.90
8459;DHT22;4266;48.816;9.154;2022-11-25T02:59:06;3.80;99.90
8459;DHT22;4266;48.816;9.154;2022-11-25T03:01:32;3.80;99.90
8459;DHT22;4266;48.816;9.154;2022-11-25T03:03:57;3.80;99.90
8459;DHT22;4266;48.816;9.154;2022-11-25T03:06:23;3.70;99.90
8459;DHT22;4266;48.816;9.154;2022-11-25T03:08:49;3.70;99.90
8459;DHT22;4266;48.816;9.154;2022-11-25T03:11:15;3.50;99.90
8459;DHT22;4266;48.816;9.154;2022-11-25T03:13:41;3.40;99.90
8459;DHT22;4266;48.816;9.154;2022-11-25T03:16:07;3.40;99.90
8459;DHT22;4266;48.816;9.154;2022-11-25T03:18:33;3.30;99.90
8459;DHT22;4266;48.816;9.154;2022-11-25T03:20:59;3.30;99.90
8459;DHT22;4266;48.816;9.154;2022-11-25T03:23:25;3.20;99.90
8459;DHT22;4266;48.816;9.154;2022-11-25T03:25:51;3.20;99.90
8459;DHT22;4266;48.816;9.154;2022-11-25T03:28:17;3.10;99.90
8459;DHT22;4266;48.816;9.154;2022-11-25T03:30:42;3.10;99.90
8459;DHT22;4266;48.816;9.154;2022-11-25T03:33:08;3.10;99.90
8459;DHT22;4266;48.816;9.154;2022-11-25T03:35:34;3.10;99.90
8459;DHT22;4266;48.816;9.154;2022-11-25T03:38:00;3.10;99.90
8459;DHT22;4266;48.816;9.154;2022-11-25T03:40:25;3.00;99.90
8459;DHT22;4266;48.816;9.154;2022-11-25T03:42:51;3.10;99.90
8459;DHT22;4266;48.816;9.154;2022-11-25T03:45:18;3.10;99.90
8459;DHT22;4266;48.816;9.154;2022-11-25T03:47:44;3.00;99.90
8459;DHT22;4266;48.816;9.154;2022-11-25T03:50:11;3.00;99.90
8459;DHT22;4266;48.816;9.154;2022-11-25T03:52:36;3.00;99.90
8459;DHT22;4266;48.816;9.154;2022-11-25T03:55:04;3.00;99.90
8459;DHT22;4266;48.816;9.154;2022-11-25T03:57:30;3.00;99.90
8459;DHT22;4266;48.816;9.154;2022-11-25T03:59:57;3.10;99.90
8459;DHT22;4266;48.816;9.154;2022-11-25T04:02:22;3.00;99.90
8459;DHT22;4266;48.816;9.154;2022-11-25T04:04:48;3.10;99.90
8459;DHT22;4266;48.816;9.154;2022-11-25T04:07:14;3.00;99.90
8459;DHT22;4266;48.816;9.154;2022-11-25T04:09:39;3.00;99.90
8459;DHT22;4266;48.816;9.154;2022-11-25T04:12:05;2.90;99.90
8459;DHT22;4266;48.816;9.154;2022-11-25T04:14:37;2.90;99.90
8459;DHT22;4266;48.816;9.154;2022-11-25T04:17:03;2.80;99.90
8459;DHT22;4266;48.816;9.154;2022-11-25T04:19:28;2.80;99.90
8459;DHT22;4266;48.816;9.154;2022-11-25T04:21:54;2.80;99.90
8459;DHT22;4266;48.816;9.154;2022-11-25T04:24:20;2.70;99.90
8459;DHT22;4266;48.816;9.154;2022-11-25T04:26:47;2.70;99.90
8459;DHT22;4266;48.816;9.154;2022-11-25T04:29:12;2.70;99.90
8459;DHT22;4266;48.816;9.154;2022-11-25T04:31:38;2.70;99.90
8459;DHT22;4266;48.816;9.154;2022-11-25T04:34:04;2.70;99.90
8459;DHT22;4266;48.816;9.154;2022-11-25T04:36:30;2.80;99.90
8459;DHT22;4266;48.816;9.154;2022-11-25T04:38:56;2.70;99.90
8459;DHT22;4266;48.816;9.154;2022-11-25T04:41:22;2.80;99.90
8459;DHT22;4266;48.816;9.154;2022-11-25T04:43:47;2.80;99.90
8459;DHT22;4266;48.816;9.154;2022-11-25T04:46:15;3.00;99.90
8459;DHT22;4266;48.816;9.154;2022-11-25T04:48:41;3.00;99.90
8459;DHT22;4266;48.816;9.154;2022-11-25T04:51:06;3.10;99.90
8459;DHT22;4266;48.816;9.154;2022-11-25T04:53:32;3.20;99.90
8459;DHT22;4266;48.816;9.154;2022-11-25T04:55:58;3.30;99.90
8459;DHT22;4266;48.816;9.154;2022-11-25T04:58:23;3.30;99.90
8459;DHT22;4266;48.816;9.154;2022-11-25T05:00:55;3.30;99.90
8459;DHT22;4266;48.816;9.154;2022-11-25T05:03:21;3.40;99.90
8459;DHT22;4266;48.816;9.154;2022-11-25T05:05:47;3.40;99.90
8459;DHT22;4266;48.816;9.154;2022-11-25T05:08:12;3.30;99.90
8459;DHT22;4266;48.816;9.154;2022-11-25T05:10:38;3.30;99.90
8459;DHT22;4266;48.816;9.154;2022-11-25T05:13:05;3.30;99.90
8459;DHT22;4266;48.816;9.154;2022-11-25T05:15:30;3.30;99.90
8459;DHT22;4266;48.816;9.154;2022-11-25T05:17:56;3.20;99.90
8459;DHT22;4266;48.816;9.154;2022-11-25T05:20:22;3.10;99.90
8459;DHT22;4266;48.816;9.154;2022-11-25T05:22:47;3.00;99.90
8459;DHT22;4266;48.816;9.154;2022-11-25T05:25:14;2.90;99.90
8459;DHT22;4266;48.816;9.154;2022-11-25T05:27:40;2.90;99.90
8459;DHT22;4266;48.816;9.154;2022-11-25T05:30:07;2.90;99.90
8459;DHT22;4266;48.816;9.154;2022-11-25T05:32:34;3.00;99.90
8459;DHT22;4266;48.816;9.154;2022-11-25T05:35:00;3.00;99.90
8459;DHT22;4266;48.816;9.154;2022-11-25T05:37:25;3.00;99.90
8459;DHT22;4266;48.816;9.154;2022-11-25T05:39:51;2.90;99.90
8459;DHT22;4266;48.816;9.154;2022-11-25T05:42:17;2.80;99.90
8459;DHT22;4266;48.816;9.154;2022-11-25T05:44:42;2.90;99.90
8459;DHT22;4266;48.816;9.154;2022-11-25T05:47:09;2.80;99.90
8459;DHT22;4266;48.816;9.154;2022-11-25T05:49:35;2.80;99.90
8459;DHT22;4266;48.816;9.154;2022-11-25T05:52:00;2.80;99.90
8459;DHT22;4266;48.816;9.154;2022-11-25T05:54:26;2.90;99.90
8459;DHT22;4266;48.816;9.154;2022-11-25T05:56:52;3.00;99.90
8459;DHT22;4266;48.816;9.154;2022-11-25T05:59:18;3.10;99.90
8459;DHT22;4266;48.816;9.154;2022-11-25T06:01:43;3.00;99.90
8459;DHT22;4266;48.816;9.154;2022-11-25T06:04:09;3.00;99.90
8459;DHT22;4266;48.816;9.154;2022-11-25T06:06:35;2.90;99.90
8459;DHT22;4266;48.816;9.154;2022-11-25T06:09:01;2.80;99.90
8459;DHT22;4266;48.816;9.154;2022-11-25T06:11:26;2.80;99.90
8459;DHT22;4266;48.816;9.154;2022-11-25T06:13:52;2.70;99.90
8459;DHT22;4266;48.816;9.154;2022-11-25T06:16:19;2.70;99.90
8459;DHT22;4266;48.816;9.154;2022-11-25T06:18:43;2.70;99.90
8459;DHT22;4266;48.816;9.154;2022-11-25T06:21:09;2.70;99.90
8459;DHT22;4266;48.816;9.154;2022-11-25T06:23:35;2.70;99.90
8459;DHT22;4266;48.816;9.154;2022-11-25T06:26:05;2.80;99.90
8459;DHT22;4266;48.816;9.154;2022-11-25T06:28:30;2.80;99.90
8459;DHT22;4266;48.816;9.154;2022-11-25T06:30:56;2.80;99.90
8459;DHT22;4266;48.816;9.154;2022-11-25T06:33:22;2.70;99.90
8459;DHT22;4266;48.816;9.154;2022-11-25T06:35:48;2.60;99.90
8459;DHT22;4266;48.816;9.154;2022-11-25T06:38:13;2.60;99.90
8459;DHT22;4266;48.816;9.154;2022-11-25T06:40:39;2.70;99.90
8459;DHT22;4266;48.816;9.154;2022-11-25T06:43:05;2.90;99.90
8459;DHT22;4266;48.816;9.154;2022-11-25T06:45:31;2.80;99.90
8459;DHT22;4266;48.816;9.154;2022-11-25T06:47:58;3.00;99.90
8459;DHT22;4266;48.816;9.154;2022-11-25T06:50:23;2.90;99.90
8459;DHT22;4266;48.816;9.154;2022-11-25T06:52:50;2.90;99.90
8459;DHT22;4266;48.816;9.154;2022-11-25T06:55:16;2.90;99.90
8459;DHT22;4266;48.816;9.154;2022-11-25T06:57:41;2.90;99.90
8459;DHT22;4266;48.816;9.154;2022-11-25T07:00:08;3.00;99.90
8459;DHT22;4266;48.816;9.154;2022-11-25T07:02:34;3.10;99.90
8459;DHT22;4266;48.816;9.154;2022-11-25T07:05:00;3.20;99.90
8459;DHT22;4266;48.816;9.154;2022-11-25T07:07:25;3.30;99.90
8459;DHT22;4266;48.816;9.154;2022-11-25T07:09:51;3.40;99.90
8459;DHT22;4266;48.816;9.154;2022-11-25T07:12:18;3.40;99.90
8459;DHT22;4266;48.816;9.154;2022-11-25T07:14:43;3.40;99.90
8459;DHT22;4266;48.816;9.154;2022-11-25T07:17:09;3.50;99.90
8459;DHT22;4266;48.816;9.154;2022-11-25T07:19:35;3.60;99.90
8459;DHT22;4266;48.816;9.154;2022-11-25T07:22:01;3.70;99.90
8459;DHT22;4266;48.816;9.154;2022-11-25T07:24:27;3.70;99.90
8459;DHT22;4266;48.816;9.154;2022-11-25T07:26:53;3.80;99.90
8459;DHT22;4266;48.816;9.154;2022-11-25T07:29:19;3.90;99.90
8459;DHT22;4266;48.816;9.154;2022-11-25T07:31:44;3.80;99.90
8459;DHT22;4266;48.816;9.154;2022-11-25T07:34:11;3.70;99.90
8459;DHT22;4266;48.816;9.154;2022-11-25T07:36:36;3.90;99.90
8459;DHT22;4266;48.816;9.154;2022-11-25T07:39:04;4.20;99.90
8459;DHT22;4266;48.816;9.154;2022-11-25T07:41:28;4.20;99.90
8459;DHT22;4266;48.816;9.154;2022-11-25T07:43:57;4.30;99.90
8459;DHT22;4266;48.816;9.154;2022-11-25T07:46:23;4.40;99.90
8459;DHT22;4266;48.816;9.154;2022-11-25T07:48:47;4.40;99.90
8459;DHT22;4266;48.816;9.154;2022-11-25T07:51:19;4.60;99.90
8459;DHT22;4266;48.816;9.154;2022-11-25T07:53:43;4.50;99.90
8459;DHT22;4266;48.816;9.154;2022-11-25T07:56:08;4.70;99.90
8459;DHT22;4266;48.816;9.154;2022-11-25T07:58:35;4.80;99.90
8459;DHT22;4266;48.816;9.154;2022-11-25T08:01:01;4.80;99.90
8459;DHT22;4266;48.816;9.154;2022-11-25T08:03:26;4.80;99.90
8459;DHT22;4266;48.816;9.154;2022-11-25T08:05:52;5.00;99.90
8459;DHT22;4266;48.816;9.154;2022-11-25T08:08:18;5.10;99.90
8459;DHT22;4266;48.816;9.154;2022-11-25T08:10:43;5.20;99.90
8459;DHT22;4266;48.816;9.154;2022-11-25T08:13:10;5.50;99.90
8459;DHT22;4266;48.816;9.154;2022-11-25T08:15:36;5.50;99.90
8459;DHT22;4266;48.816;9.154;2022-11-25T08:18:02;5.60;99.90
8459;DHT22;4266;48.816;9.154;2022-11-25T08:20:28;5.70;99.90
8459;DHT22;4266;48.816;9.154;2022-11-25T08:22:55;5.70;99.90
8459;DHT22;4266;48.816;9.154;2022-11-25T08:25:20;5.70;99.90
8459;DHT22;4266;48.816;9.154;2022-11-25T08:27:46;5.90;99.90
8459;DHT22;4266;48.816;9.154;2022-11-25T08:30:13;6.30;99.90
8459;DHT22;4266;48.816;9.154;2022-11-25T08:32:39;6.30;99.90
8459;DHT22;4266;48.816;9.154;2022-11-25T08:35:06;6.40;99.90
8459;DHT22;4266;48.816;9.154;2022-11-25T08:37:32;6.60;99.90
8459;DHT22;4266;48.816;9.154;2022-11-25T08:40:00;6.60;99.90
8459;DHT22;4266;48.816;9.154;2022-11-25T08:42:25;6.60;99.90
8459;DHT22;4266;48.816;9.154;2022-11-25T08:44:52;6.70;99.90
8459;DHT22;4266;48.816;9.154;2022-11-25T08:47:17;6.70;99.90
8459;DHT22;4266;48.816;9.154;2022-11-25T08:49:43;6.90;99.90
8459;DHT22;4266;48.816;9.154;2022-11-25T08:52:09;7.00;99.90
8459;DHT22;4266;48.816;9.154;2022-11-25T08:54:37;7.00;99.90
8459;DHT22;4266;48.816;9.154;2022-11-25T08:57:03;7.00;99.90
8459;DHT22;4266;48.816;9.154;2022-11-25T08:59:29;7.10;99.90
8459;DHT22;4266;48.816;9.154;2022-11-25T09:01:55;7.10;99.90
8459;DHT22;4266;48.816;9.154;2022-11-25T09:04:21;7.50;99.90
8459;DHT22;4266;48.816;9.154;2022-11-25T09:06:47;7.50;99.90
8459;DHT22;4266;48.816;9.154;2022-11-25T09:09:13;8.00;99.70
8459;DHT22;4266;48.816;9.154;2022-11-25T09:11:39;9.50;98.40
8459;DHT22;4266;48.816;9.154;2022-11-25T09:14:05;11.60;94.50
8459;DHT22;4266;48.816;9.154;2022-11-25T09:16:31;11.60;94.50
8459;DHT22;4266;48.816;9.154;2022-11-25T09:18:57;13.20;93.40
8459;DHT22;4266;48.816;9.154;2022-11-25T09:21:22;14.80;92.40
8459;DHT22;4266;48.816;9.154;2022-11-25T09:23:48;13.90;91.70
8459;DHT22;4266;48.816;9.154;2022-11-25T09:26:20;12.70;92.00
8459;DHT22;4266;48.816;9.154;2022-11-25T09:28:43;12.60;92.00
8459;DHT22;4266;48.816;9.154;2022-11-25T09:31:09;11.70;92.80
8459;DHT22;4266;48.816;9.154;2022-11-25T09:33:35;11.30;92.60
8459;DHT22;4266;48.816;9.154;2022-11-25T09:36:01;11.50;92.00
8459;DHT22;4266;48.816;9.154;2022-11-25T09:38:27;10.80;92.20
8459;DHT22;4266;48.816;9.154;2022-11-25T09:40:55;10.80;92.20
8459;DHT22;4266;48.816;9.154;2022-11-25T09:43:33;10.50;93.30
8459;DHT22;4266;48.816;9.154;2022-11-25T09:46:08;10.50;93.30
8459;DHT22;4266;48.816;9.154;2022-11-25T09:48:47;10.40;93.70
8459;DHT22;4266;48.816;9.154;2022-11-25T09:51:21;10.30;93.10
8459;DHT22;4266;48.816;9.154;2022-11-25T09:53:50;10.30;93.10
8459;DHT22;4266;48.816;9.154;2022-11-25T09:56:21;10.50;93.40
8459;DHT22;4266;48.816;9.154;2022-11-25T09:58:47;10.40;92.90
8459;DHT22;4266;48.816;9.154;2022-11-25T10:01:14;10.50;93.60
8459;DHT22;4266;48.816;9.154;2022-11-25T10:03:40;10.50;93.50
8459;DHT22;4266;48.816;9.154;2022-11-25T10:06:21;10.60;92.40
8459;DHT22;4266;48.816;9.154;2022-11-25T10:08:47;10.80;93.20
8459;DHT22;4266;48.816;9.154;2022-11-25T10:11:53;10.70;93.40
8459;DHT22;4266;48.816;9.154;2022-11-25T10:14:38;10.80;93.50
8459;DHT22;4266;48.816;9.154;2022-11-25T10:17:24;10.40;93.00
8459;DHT22;4266;48.816;9.154;2022-11-25T10:19:53;10.40;93.00
8459;DHT22;4266;48.816;9.154;2022-11-25T10:22:26;9.30;94.60
8459;DHT22;4266;48.816;9.154;2022-11-25T10:24:51;9.30;94.60
8459;DHT22;4266;48.816;9.154;2022-11-25T10:27:18;10.00;94.10
8459;DHT22;4266;48.816;9.154;2022-11-25T10:29:42;9.90;94.60
8459;DHT22;4266;48.816;9.154;2022-11-25T10:32:19;10.20;94.00
8459;DHT22;4266;48.816;9.154;2022-11-25T10:34:39;10.20;94.10
8459;DHT22;4266;48.816;9.154;2022-11-25T10:37:04;10.50;94.00
8459;DHT22;4266;48.816;9.154;2022-11-25T10:39:30;10.90;93.90
8459;DHT22;4266;48.816;9.154;2022-11-25T10:42:04;10.80;93.60
8459;DHT22;4266;48.816;9.154;2022-11-25T10:44:32;10.80;93.90
8459;DHT22;4266;48.816;9.154;2022-11-25T10:47:12;10.80;93.90
8459;DHT22;4266;48.816;9.154;2022-11-25T10:49:43;10.80;93.90
8459;DHT22;4266;48.816;9.154;2022-11-25T10:52:09;10.70;93.90
8459;DHT22;4266;48.816;9.154;2022-11-25T10:54:29;10.60;94.00
8459;DHT22;4266;48.816;9.154;2022-11-25T10:56:59;10.50;94.10
8459;DHT22;4266;48.816;9.154;2022-11-25T10:59:28;10.60;94.20
8459;DHT22;4266;48.816;9.154;2022-11-25T11:01:53;10.60;94.10
8459;DHT22;4266;48.816;9.154;2022-11-25T11:04:18;10.70;94.30
8459;DHT22;4266;48.816;9.154;2022-11-25T11:06:45;10.40;94.50
8459;DHT22;4266;48.816;9.154;2022-11-25T11:11:48;10.40;94.70
8459;DHT22;4266;48.816;9.154;2022-11-25T11:14:16;10.40;95.20
8459;DHT22;4266;48.816;9.154;2022-11-25T11:16:41;10.40;95.20
8459;DHT22;4266;48.816;9.154;2022-11-25T11:19:12;10.70;95.00
8459;DHT22;4266;48.816;9.154;2022-11-25T11:21:32;10.60;94.70
8459;DHT22;4266;48.816;9.154;2022-11-25T11:23:58;10.50;94.70
8459;DHT22;4266;48.816;9.154;2022-11-25T11:26:26;10.30;94.70
8459;DHT22;4266;48.816;9.154;2022-11-25T11:28:56;10.20;94.70
8459;DHT22;4266;48.816;9.154;2022-11-25T11:31:21;10.10;94.80
8459;DHT22;4266;48.816;9.154;2022-11-25T11:34:22;10.00;94.60
8459;DHT22;4266;48.816;9.154;2022-11-25T11:37:12;10.00;94.60
8459;DHT22;4266;48.816;9.154;2022-11-25T11:40:02;9.80;95.30
8459;DHT22;4266;48.816;9.154;2022-11-25T11:42:59;9.80;95.60
8459;DHT22;4266;48.816;9.154;2022-11-25T11:45:17;9.70;95.70
8459;DHT22;4266;48.816;9.154;2022-11-25T11:47:51;9.60;95.90
8459;DHT22;4266;48.816;9.154;2022-11-25T11:50:24;9.60;95.90
8459;DHT22;4266;48.816;9.154;2022-11-25T11:53:12;9.50;96.30
8459;DHT22;4266;48.816;9.154;2022-11-25T11:55:47;9.40;96.90
8459;DHT22;4266;48.816;9.154;2022-11-25T11:58:20;9.30;97.10
8459;DHT22;4266;48.816;9.154;2022-11-25T12:00:48;9.30;97.60
8459;DHT22;4266;48.816;9.154;2022-11-25T12:03:12;9.30;97.90
8459;DHT22;4266;48.816;9.154;2022-11-25T12:05:36;9.30;98.40
8459;DHT22;4266;48.816;9.154;2022-11-25T12:08:10;9.20;99.10
8459;DHT22;4266;48.816;9.154;2022-11-25T12:10:37;9.10;99.20
8459;DHT22;4266;48.816;9.154;2022-11-25T12:13:11;9.10;99.90
8459;DHT22;4266;48.816;9.154;2022-11-25T12:15:44;9.10;99.90
8459;DHT22;4266;48.816;9.154;2022-11-25T12:18:31;9.00;99.90
8459;DHT22;4266;48.816;9.154;2022-11-25T12:21:01;9.10;99.90
8459;DHT22;4266;48.816;9.154;2022-11-25T12:23:30;9.00;99.90
8459;DHT22;4266;48.816;9.154;2022-11-25T12:25:55;9.00;99.90
8459;DHT22;4266;48.816;9.154;2022-11-25T12:28:23;9.00;99.90
8459;DHT22;4266;48.816;9.154;2022-11-25T12:33:40;9.30;99.90
8459;DHT22;4266;48.816;9.154;2022-11-25T12:36:08;9.20;99.90
8459;DHT22;4266;48.816;9.154;2022-11-25T12:38:38;9.20;99.90
8459;DHT22;4266;48.816;9.154;2022-11-25T12:41:08;9.20;99.90
8459;DHT22;4266;48.816;9.154;2022-11-25T12:43:34;9.10;99.90
8459;DHT22;4266;48.816;9.154;2022-11-25T12:46:04;9.00;99.90
8459;DHT22;4266;48.816;9.154;2022-11-25T12:48:26;9.00;99.90
8459;DHT22;4266;48.816;9.154;2022-11-25T12:51:01;9.00;99.90
8459;DHT22;4266;48.816;9.154;2022-11-25T12:53:50;9.00;99.90
8459;DHT22;4266;48.816;9.154;2022-11-25T12:56:15;8.90;99.90
8459;DHT22;4266;48.816;9.154;2022-11-25T12:58:43;8.90;99.90
8459;DHT22;4266;48.816;9.154;2022-11-25T13:04:47;8.90;99.90
8459;DHT22;4266;48.816;9.154;2022-11-25T13:07:06;8.90;99.90
8459;DHT22;4266;48.816;9.154;2022-11-25T13:09:53;8.90;99.90
8459;DHT22;4266;48.816;9.154;2022-11-25T13:12:18;8.90;99.90
8459;DHT22;4266;48.816;9.154;2022-11-25T13:17:30;8.70;99.90
8459;DHT22;4266;48.816;9.154;2022-11-25T13:20:22;8.80;99.90
8459;DHT22;4266;48.816;9.154;2022-11-25T13:22:26;8.80;99.90
8459;DHT22;4266;48.816;9.154;2022-11-25T13:24:51;8.90;99.90
8459;DHT22;4266;48.816;9.154;2022-11-25T13:27:31;9.10;99.90
8459;DHT22;4266;48.816;9.154;2022-11-25T13:29:56;9.20;99.90
8459;DHT22;4266;48.816;9.154;2022-11-25T13:32:31;9.20;99.90
8459;DHT22;4266;48.816;9.154;2022-11-25T13:37:36;9.30;99.90
8459;DHT22;4266;48.816;9.154;2022-11-25T13:43:02;9.20;99.90
8459;DHT22;4266;48.816;9.154;2022-11-25T13:45:32;9.30;99.90
8459;DHT22;4266;48.816;9.154;2022-11-25T13:48:34;9.40;99.90
8459;DHT22;4266;48.816;9.154;2022-11-25T13:50:44;9.60;99.90
8459;DHT22;4266;48.816;9.154;2022-11-25T13:53:20;9.60;99.90
8459;DHT22;4266;48.816;9.154;2022-11-25T13:55:44;9.80;99.90
8459;DHT22;4266;48.816;9.154;2022-11-25T13:58:15;9.80;99.90
8459;DHT22;4266;48.816;9.154;2022-11-25T14:00:42;9.90;99.90
8459;DHT22;4266;48.816;9.154;2022-11-25T14:06:15;9.80;99.90
8459;DHT22;4266;48.816;9.154;2022-11-25T14:14:05;10.00;99.10
8459;DHT22;4266;48.816;9.154;2022-11-25T14:16:40;10.00;99.10
8459;DHT22;4266;48.816;9.154;2022-11-25T14:19:25;10.00;98.40
8459;DHT22;4266;48.816;9.154;2022-11-25T14:21:56;10.10;98.60
8459;DHT22;4266;48.816;9.154;2022-11-25T14:24:37;10.10;98.60
8459;DHT22;4266;48.816;9.154;2022-11-25T14:27:02;10.10;97.50
8459;DHT22;4266;48.816;9.154;2022-11-25T14:29:47;10.20;97.20
8459;DHT22;4266;48.816;9.154;2022-11-25T14:32:15;10.00;97.00
8459;DHT22;4266;48.816;9.154;2022-11-25T14:34:42;10.00;96.90
8459;DHT22;4266;48.816;9.154;2022-11-25T14:37:13;10.00;97.10
8459;DHT22;4266;48.816;9.154;2022-11-25T14:39:42;9.90;97.50
8459;DHT22;4266;48.816;9.154;2022-11-25T14:42:09;10.00;96.70
8459;DHT22;4266;48.816;9.154;2022-11-25T14:47:12;9.80;96.70
8459;DHT22;4266;48.816;9.154;2022-11-25T14:49:42;9.80;96.80
8459;DHT22;4266;48.816;9.154;2022-11-25T14:52:06;9.70;96.20
8459;DHT22;4266;48.816;9.154;2022-11-25T14:54:32;9.70;96.20
8459;DHT22;4266;48.816;9.154;2022-11-25T14:56:58;9.70;96.10
8459;DHT22;4266;48.816;9.154;2022-11-25T14:59:23;9.70;96.20
8459;DHT22;4266;48.816;9.154;2022-11-25T15:01:51;9.60;96.40
8459;DHT22;4266;48.816;9.154;2022-11-25T15:04:19;9.60;96.30
8459;DHT22;4266;48.816;9.154;2022-11-25T15:06:49;9.40;96.30
8459;DHT22;4266;48.816;9.154;2022-11-25T15:09:23;9.40;96.30
8459;DHT22;4266;48.816;9.154;2022-11-25T15:11:47;9.30;96.30
8459;DHT22;4266;48.816;9.154;2022-11-25T15:14:16;9.30;96.30
8459;DHT22;4266;48.816;9.154;2022-11-25T15:16:39;9.20;96.40
8459;DHT22;4266;48.816;9.154;2022-11-25T15:19:05;9.10;96.40
8459;DHT22;4266;48.816;9.154;2022-11-25T15:21:35;9.00;96.40
8459;DHT22;4266;48.816;9.154;2022-11-25T15:24:01;9.00;96.30
8459;DHT22;4266;48.816;9.154;2022-11-25T15:26:27;9.00;96.50
8459;DHT22;4266;48.816;9.154;2022-11-25T15:28:54;9.00;96.50
8459;DHT22;4266;48.816;9.154;2022-11-25T15:31:20;9.00;96.30
8459;DHT22;4266;48.816;9.154;2022-11-25T15:33:46;9.00;96.30
8459;DHT22;4266;48.816;9.154;2022-11-25T15:36:12;9.00;96.40
8459;DHT22;4266;48.816;9.154;2022-11-25T15:38:42;9.00;96.40
8459;DHT22;4266;48.816;9.154;2022-11-25T15:41:15;9.00;96.20
8459;DHT22;4266;48.816;9.154;2022-11-25T15:43:39;9.00;96.30
8459;DHT22;4266;48.816;9.154;2022-11-25T15:46:05;9.00;96.40
8459;DHT22;4266;48.816;9.154;2022-11-25T15:48:35;8.90;96.60
8459;DHT22;4266;48.816;9.154;2022-11-25T15:51:04;8.90;96.60
8459;DHT22;4266;48.816;9.154;2022-11-25T15:53:30;8.90;96.60
8459;DHT22;4266;48.816;9.154;2022-11-25T15:55:58;8.90;96.50
8459;DHT22;4266;48.816;9.154;2022-11-25T15:58:22;8.80;96.50
8459;DHT22;4266;48.816;9.154;2022-11-25T16:00:58;8.70;96.70
8459;DHT22;4266;48.816;9.154;2022-11-25T16:03:23;8.80;96.70
8459;DHT22;4266;48.816;9.154;2022-11-25T16:05:53;8.70;97.10
8459;DHT22;4266;48.816;9.154;2022-11-25T16:08:22;8.70;97.10
8459;DHT22;4266;48.816;9.154;2022-11-25T16:10:49;8.60;97.20
8459;DHT22;4266;48.816;9.154;2022-11-25T16:13:31;8.60;97.20
8459;DHT22;4266;48.816;9.154;2022-11-25T16:16:15;8.70;97.20
8459;DHT22;4266;48.816;9.154;2022-11-25T16:18:53;8.60;97.20
8459;DHT22;4266;48.816;9.154;2022-11-25T16:21:09;8.60;97.20
8459;DHT22;4266;48.816;9.154;2022-11-25T16:23:34;8.70;97.10
8459;DHT22;4266;48.816;9.154;2022-11-25T16:26:04;8.70;97.10
8459;DHT22;4266;48.816;9.154;2022-11-25T16:28:28;8.50;97.30
8459;DHT22;4266;48.816;9.154;2022-11-25T16:30:54;8.50;97.30
8459;DHT22;4266;48.816;9.154;2022-11-25T16:33:20;8.50;97.40
8459;DHT22;4266;48.816;9.154;2022-11-25T16:35:46;8.50;97.40
8459;DHT22;4266;48.816;9.154;2022-11-25T16:38:11;8.50;97.50
8459;DHT22;4266;48.816;9.154;2022-11-25T16:40:37;8.50;97.50
8459;DHT22;4266;48.816;9.154;2022-11-25T16:43:03;8.40;97.70
8459;DHT22;4266;48.816;9.154;2022-11-25T16:45:29;8.30;97.80
8459;DHT22;4266;48.816;9.154;2022-11-25T16:47:55;8.30;97.80